This is the latest recevied weather packets stored in our database for station/object VE4JMP. If no packets are shown the sender has not sent any weather packets the latest 10 day(s).
| Time | Temp. | Humidity | Pressure | Rain* | Wind** | Luminosity | Snow |
|---|---|---|---|---|---|---|---|
| 1778205624 | 6.67° C | 46% | 1008.6 hPa | 0 mm | - | - | - |
| 1778205028 | 7.22° C | 44% | 1008.6 hPa | 0 mm | - | - | - |
| 1778190638 | 12.78° C | 27% | 1009.6 hPa | 0 mm | - | - | - |
| 1778190022 | 12.22° C | 27% | 1009.7 hPa | 0 mm | - | - | - |
| 1778185218 | 12.78° C | 29% | 1010.5 hPa | 0 mm | - | - | - |
| 1778181626 | 12.22° C | 31% | 1010.6 hPa | 0 mm | - | - | - |
| 1778177418 | 11.11° C | 34% | 1011.5 hPa | 0 mm | - | - | - |
| 1778176226 | 10° C | 35% | 1011.8 hPa | 0 mm | - | - | - |
| 1778175651 | 9.44° C | 36% | 1011.9 hPa | 0 mm | - | - | - |
| 1778172653 | 8.89° C | 38% | 1012.3 hPa | 0 mm | - | - | - |
| 1778167215 | 6.11° C | 44% | 1013.2 hPa | 0 mm | - | - | - |
| 1778165427 | 5° C | 47% | 1013.5 hPa | 0 mm | - | - | - |
| 1778162430 | 6.11° C | 44% | 1013.6 hPa | 0 mm | - | - | - |
| 1778161816 | 6.11° C | 44% | 1013.6 hPa | 0 mm | - | - | - |
| 1778161220 | 5° C | 50% | 1013.6 hPa | 0 mm | - | - | - |
| 1778160624 | 4.44° C | 52% | 1013.7 hPa | 0 mm | - | - | - |
| 1778155820 | -5° C | 85% | 1013.5 hPa | 0 mm | - | - | - |
| 1778150421 | -6.67° C | 88% | 1013.2 hPa | 0 mm | - | - | - |
| 1778148615 | -6.67° C | 90% | 1013.4 hPa | 0 mm | - | - | - |
| 1778148019 | -7.22° C | 90% | 1013.5 hPa | 0 mm | - | - | - |
| 1778145618 | -8.33° C | 90% | 1013.5 hPa | 0 mm | - | - | - |
| 1778134819 | -7.78° C | 82% | 1014 hPa | 0 mm | - | - | - |
| 1778130631 | -6.67° C | 83% | 1014.1 hPa | 0 mm | - | - | - |
| 1778115048 | 2.78° C | 54% | 1015 hPa | 0 mm | - | - | - |
| 1778113818 | 3.89° C | 53% | 1015.1 hPa | 0 mm | - | - | - |
* Rain latest hour (hover to see other rain measurements)
** Current wind speed in m/s (hover to see current wind gust speed)